sensor_id;sensor_type;location;lat;lon;timestamp;P1;durP1;ratioP1;P2;durP2;ratioP2
9524;SDS011;15940;48.734;9.112;2023-06-26T00:00:16;7.43;;;6.80;;
9524;SDS011;15940;48.734;9.112;2023-06-26T00:02:52;7.90;;;7.20;;
9524;SDS011;15940;48.734;9.112;2023-06-26T00:05:22;8.40;;;6.83;;
9524;SDS011;15940;48.734;9.112;2023-06-26T00:07:49;9.17;;;6.60;;
9524;SDS011;15940;48.734;9.112;2023-06-26T00:10:16;6.90;;;6.30;;
9524;SDS011;15940;48.734;9.112;2023-06-26T00:12:43;7.70;;;6.37;;
9524;SDS011;15940;48.734;9.112;2023-06-26T00:15:10;6.90;;;6.30;;
9524;SDS011;15940;48.734;9.112;2023-06-26T00:19:59;7.93;;;6.70;;
9524;SDS011;15940;48.734;9.112;2023-06-26T00:22:30;9.17;;;6.77;;
9524;SDS011;15940;48.734;9.112;2023-06-26T00:25:01;7.00;;;6.30;;
9524;SDS011;15940;48.734;9.112;2023-06-26T00:27:29;7.33;;;6.63;;
9524;SDS011;15940;48.734;9.112;2023-06-26T00:29:56;7.17;;;6.47;;
9524;SDS011;15940;48.734;9.112;2023-06-26T00:32:23;7.37;;;6.27;;
9524;SDS011;15940;48.734;9.112;2023-06-26T00:34:50;8.43;;;6.40;;
9524;SDS011;15940;48.734;9.112;2023-06-26T00:37:19;7.27;;;6.60;;
9524;SDS011;15940;48.734;9.112;2023-06-26T00:39:49;6.97;;;6.27;;
9524;SDS011;15940;48.734;9.112;2023-06-26T00:42:16;9.57;;;6.67;;
9524;SDS011;15940;48.734;9.112;2023-06-26T00:44:43;6.97;;;6.30;;
9524;SDS011;15940;48.734;9.112;2023-06-26T00:47:11;6.77;;;6.17;;
9524;SDS011;15940;48.734;9.112;2023-06-26T00:49:42;6.70;;;6.07;;
9524;SDS011;15940;48.734;9.112;2023-06-26T00:52:09;7.50;;;6.40;;
9524;SDS011;15940;48.734;9.112;2023-06-26T00:54:38;6.77;;;6.20;;
9524;SDS011;15940;48.734;9.112;2023-06-26T00:57:05;7.77;;;6.90;;
9524;SDS011;15940;48.734;9.112;2023-06-26T00:59:33;6.67;;;6.03;;
9524;SDS011;15940;48.734;9.112;2023-06-26T01:02:08;7.60;;;6.90;;
9524;SDS011;15940;48.734;9.112;2023-06-26T01:04:35;7.23;;;6.53;;
9524;SDS011;15940;48.734;9.112;2023-06-26T01:07:02;7.33;;;6.67;;
9524;SDS011;15940;48.734;9.112;2023-06-26T01:09:33;7.07;;;5.93;;
9524;SDS011;15940;48.734;9.112;2023-06-26T01:14:26;6.90;;;6.20;;
9524;SDS011;15940;48.734;9.112;2023-06-26T01:16:53;6.83;;;5.80;;
9524;SDS011;15940;48.734;9.112;2023-06-26T01:19:23;7.50;;;6.80;;
9524;SDS011;15940;48.734;9.112;2023-06-26T01:22:04;6.70;;;6.10;;
9524;SDS011;15940;48.734;9.112;2023-06-26T01:24:50;6.40;;;5.80;;
9524;SDS011;15940;48.734;9.112;2023-06-26T01:29:52;7.00;;;6.40;;
9524;SDS011;15940;48.734;9.112;2023-06-26T01:32:21;7.30;;;6.60;;
9524;SDS011;15940;48.734;9.112;2023-06-26T01:34:49;7.33;;;6.63;;
9524;SDS011;15940;48.734;9.112;2023-06-26T01:37:16;7.40;;;6.70;;
9524;SDS011;15940;48.734;9.112;2023-06-26T01:39:43;7.93;;;7.10;;
9524;SDS011;15940;48.734;9.112;2023-06-26T01:42:10;6.20;;;5.70;;
9524;SDS011;15940;48.734;9.112;2023-06-26T01:44:40;6.30;;;5.80;;
9524;SDS011;15940;48.734;9.112;2023-06-26T01:47:14;8.93;;;6.00;;
9524;SDS011;15940;48.734;9.112;2023-06-26T01:49:47;6.33;;;5.50;;
9524;SDS011;15940;48.734;9.112;2023-06-26T01:52:21;6.10;;;5.60;;
9524;SDS011;15940;48.734;9.112;2023-06-26T01:55:01;7.00;;;6.30;;
9524;SDS011;15940;48.734;9.112;2023-06-26T01:57:39;6.67;;;6.07;;
9524;SDS011;15940;48.734;9.112;2023-06-26T02:00:08;6.97;;;6.27;;
9524;SDS011;15940;48.734;9.112;2023-06-26T02:02:40;6.83;;;6.13;;
9524;SDS011;15940;48.734;9.112;2023-06-26T02:05:07;6.73;;;6.03;;
9524;SDS011;15940;48.734;9.112;2023-06-26T02:07:37;6.57;;;6.07;;
9524;SDS011;15940;48.734;9.112;2023-06-26T02:10:06;6.87;;;6.17;;
9524;SDS011;15940;48.734;9.112;2023-06-26T02:12:34;6.13;;;5.53;;
9524;SDS011;15940;48.734;9.112;2023-06-26T02:15:02;6.37;;;5.87;;
9524;SDS011;15940;48.734;9.112;2023-06-26T02:17:30;6.73;;;6.13;;
9524;SDS011;15940;48.734;9.112;2023-06-26T02:20:00;6.97;;;6.37;;
9524;SDS011;15940;48.734;9.112;2023-06-26T02:22:28;6.83;;;6.20;;
9524;SDS011;15940;48.734;9.112;2023-06-26T02:24:55;8.00;;;6.03;;
9524;SDS011;15940;48.734;9.112;2023-06-26T02:27:25;6.20;;;5.63;;
9524;SDS011;15940;48.734;9.112;2023-06-26T02:29:52;6.80;;;6.20;;
9524;SDS011;15940;48.734;9.112;2023-06-26T02:32:19;6.30;;;5.80;;
9524;SDS011;15940;48.734;9.112;2023-06-26T02:34:46;6.13;;;5.60;;
9524;SDS011;15940;48.734;9.112;2023-06-26T02:37:15;6.07;;;5.57;;
9524;SDS011;15940;48.734;9.112;2023-06-26T02:39:42;6.93;;;6.27;;
9524;SDS011;15940;48.734;9.112;2023-06-26T02:42:09;7.00;;;6.30;;
9524;SDS011;15940;48.734;9.112;2023-06-26T02:44:37;6.13;;;5.63;;
9524;SDS011;15940;48.734;9.112;2023-06-26T02:47:04;6.57;;;5.97;;
9524;SDS011;15940;48.734;9.112;2023-06-26T02:49:32;6.03;;;5.53;;
9524;SDS011;15940;48.734;9.112;2023-06-26T02:55:41;6.70;;;5.77;;
9524;SDS011;15940;48.734;9.112;2023-06-26T02:58:08;6.10;;;5.50;;
9524;SDS011;15940;48.734;9.112;2023-06-26T03:00:35;8.53;;;6.30;;
9524;SDS011;15940;48.734;9.112;2023-06-26T03:03:06;7.20;;;6.30;;
9524;SDS011;15940;48.734;9.112;2023-06-26T03:05:33;7.00;;;6.33;;
9524;SDS011;15940;48.734;9.112;2023-06-26T03:08:01;6.67;;;5.90;;
9524;SDS011;15940;48.734;9.112;2023-06-26T03:10:30;6.70;;;6.10;;
9524;SDS011;15940;48.734;9.112;2023-06-26T03:13:02;6.97;;;6.23;;
9524;SDS011;15940;48.734;9.112;2023-06-26T03:15:29;7.67;;;6.07;;
9524;SDS011;15940;48.734;9.112;2023-06-26T03:17:58;6.63;;;5.90;;
9524;SDS011;15940;48.734;9.112;2023-06-26T03:20:26;6.57;;;5.90;;
9524;SDS011;15940;48.734;9.112;2023-06-26T03:22:53;7.10;;;6.50;;
9524;SDS011;15940;48.734;9.112;2023-06-26T03:25:20;7.67;;;5.83;;
9524;SDS011;15940;48.734;9.112;2023-06-26T03:27:49;6.77;;;6.17;;
9524;SDS011;15940;48.734;9.112;2023-06-26T03:30:18;6.77;;;6.17;;
9524;SDS011;15940;48.734;9.112;2023-06-26T03:32:45;6.73;;;6.13;;
9524;SDS011;15940;48.734;9.112;2023-06-26T03:35:12;7.43;;;6.73;;
9524;SDS011;15940;48.734;9.112;2023-06-26T03:37:39;6.77;;;6.17;;
9524;SDS011;15940;48.734;9.112;2023-06-26T03:40:07;7.10;;;6.40;;
9524;SDS011;15940;48.734;9.112;2023-06-26T03:42:36;6.77;;;6.17;;
9524;SDS011;15940;48.734;9.112;2023-06-26T03:45:03;6.57;;;5.90;;
9524;SDS011;15940;48.734;9.112;2023-06-26T03:47:32;6.77;;;6.13;;
9524;SDS011;15940;48.734;9.112;2023-06-26T03:50:01;7.10;;;6.40;;
9524;SDS011;15940;48.734;9.112;2023-06-26T03:52:29;6.63;;;6.03;;
9524;SDS011;15940;48.734;9.112;2023-06-26T03:55:04;6.27;;;5.70;;
9524;SDS011;15940;48.734;9.112;2023-06-26T03:57:34;8.40;;;5.97;;
9524;SDS011;15940;48.734;9.112;2023-06-26T04:00:01;7.13;;;6.47;;
9524;SDS011;15940;48.734;9.112;2023-06-26T04:02:42;6.80;;;5.97;;
9524;SDS011;15940;48.734;9.112;2023-06-26T04:05:11;6.80;;;6.20;;
9524;SDS011;15940;48.734;9.112;2023-06-26T04:07:42;6.33;;;5.70;;
9524;SDS011;15940;48.734;9.112;2023-06-26T04:10:09;6.83;;;6.13;;
9524;SDS011;15940;48.734;9.112;2023-06-26T04:12:37;6.33;;;5.73;;
9524;SDS011;15940;48.734;9.112;2023-06-26T04:15:04;6.40;;;5.80;;
9524;SDS011;15940;48.734;9.112;2023-06-26T04:17:33;7.00;;;6.23;;
9524;SDS011;15940;48.734;9.112;2023-06-26T04:20:01;6.33;;;5.70;;
9524;SDS011;15940;48.734;9.112;2023-06-26T04:22:31;6.93;;;5.97;;
9524;SDS011;15940;48.734;9.112;2023-06-26T04:25:00;6.40;;;5.80;;
9524;SDS011;15940;48.734;9.112;2023-06-26T04:27:29;6.00;;;5.53;;
9524;SDS011;15940;48.734;9.112;2023-06-26T04:29:57;6.20;;;5.60;;
9524;SDS011;15940;48.734;9.112;2023-06-26T04:32:24;6.20;;;5.70;;
9524;SDS011;15940;48.734;9.112;2023-06-26T04:34:53;6.50;;;5.93;;
9524;SDS011;15940;48.734;9.112;2023-06-26T04:37:21;6.50;;;5.90;;
9524;SDS011;15940;48.734;9.112;2023-06-26T04:39:49;6.57;;;5.97;;
9524;SDS011;15940;48.734;9.112;2023-06-26T04:42:26;6.43;;;5.50;;
9524;SDS011;15940;48.734;9.112;2023-06-26T04:44:53;6.20;;;5.70;;
9524;SDS011;15940;48.734;9.112;2023-06-26T04:47:20;6.80;;;6.10;;
9524;SDS011;15940;48.734;9.112;2023-06-26T04:49:47;6.30;;;5.70;;
9524;SDS011;15940;48.734;9.112;2023-06-26T04:52:14;5.97;;;5.37;;
9524;SDS011;15940;48.734;9.112;2023-06-26T04:54:44;6.10;;;5.60;;
9524;SDS011;15940;48.734;9.112;2023-06-26T04:57:11;5.93;;;5.43;;
9524;SDS011;15940;48.734;9.112;2023-06-26T04:59:39;7.70;;;5.43;;
9524;SDS011;15940;48.734;9.112;2023-06-26T05:02:09;8.63;;;5.93;;
9524;SDS011;15940;48.734;9.112;2023-06-26T05:04:38;5.93;;;5.43;;
9524;SDS011;15940;48.734;9.112;2023-06-26T05:07:07;15.40;;;10.17;;
9524;SDS011;15940;48.734;9.112;2023-06-26T05:09:38;34.27;;;17.53;;
9524;SDS011;15940;48.734;9.112;2023-06-26T05:12:07;7.13;;;6.50;;
9524;SDS011;15940;48.734;9.112;2023-06-26T05:14:34;21.53;;;11.90;;
9524;SDS011;15940;48.734;9.112;2023-06-26T05:17:01;15.17;;;10.77;;
9524;SDS011;15940;48.734;9.112;2023-06-26T05:19:30;24.43;;;15.43;;
9524;SDS011;15940;48.734;9.112;2023-06-26T05:21:57;7.93;;;7.13;;
9524;SDS011;15940;48.734;9.112;2023-06-26T05:24:28;19.97;;;12.37;;
9524;SDS011;15940;48.734;9.112;2023-06-26T05:26:59;8.70;;;6.53;;
9524;SDS011;15940;48.734;9.112;2023-06-26T05:29:30;21.57;;;13.10;;
9524;SDS011;15940;48.734;9.112;2023-06-26T05:31:59;7.37;;;6.60;;
9524;SDS011;15940;48.734;9.112;2023-06-26T05:34:27;8.27;;;7.40;;
9524;SDS011;15940;48.734;9.112;2023-06-26T05:36:58;21.80;;;15.90;;
9524;SDS011;15940;48.734;9.112;2023-06-26T05:39:26;8.10;;;7.30;;
9524;SDS011;15940;48.734;9.112;2023-06-26T05:41:54;18.60;;;11.57;;
9524;SDS011;15940;48.734;9.112;2023-06-26T05:44:23;10.07;;;7.37;;
9524;SDS011;15940;48.734;9.112;2023-06-26T05:46:53;14.10;;;10.07;;
9524;SDS011;15940;48.734;9.112;2023-06-26T05:49:20;20.97;;;12.33;;
9524;SDS011;15940;48.734;9.112;2023-06-26T05:51:47;13.73;;;10.60;;
9524;SDS011;15940;48.734;9.112;2023-06-26T05:54:23;14.53;;;9.50;;
9524;SDS011;15940;48.734;9.112;2023-06-26T05:56:51;17.27;;;9.77;;
9524;SDS011;15940;48.734;9.112;2023-06-26T05:59:24;11.80;;;8.23;;
9524;SDS011;15940;48.734;9.112;2023-06-26T06:01:56;17.50;;;11.00;;
9524;SDS011;15940;48.734;9.112;2023-06-26T06:04:23;7.30;;;5.70;;
9524;SDS011;15940;48.734;9.112;2023-06-26T06:06:52;9.47;;;7.60;;
9524;SDS011;15940;48.734;9.112;2023-06-26T06:09:19;23.33;;;13.33;;
9524;SDS011;15940;48.734;9.112;2023-06-26T06:11:53;34.93;;;13.87;;
9524;SDS011;15940;48.734;9.112;2023-06-26T06:14:21;12.57;;;6.70;;
9524;SDS011;15940;48.734;9.112;2023-06-26T06:16:48;6.77;;;6.13;;
9524;SDS011;15940;48.734;9.112;2023-06-26T06:19:18;12.40;;;8.10;;
9524;SDS011;15940;48.734;9.112;2023-06-26T06:21:45;11.27;;;6.50;;
9524;SDS011;15940;48.734;9.112;2023-06-26T06:24:15;68.37;;;17.13;;
9524;SDS011;15940;48.734;9.112;2023-06-26T06:26:45;19.97;;;8.63;;
9524;SDS011;15940;48.734;9.112;2023-06-26T06:29:12;12.53;;;7.50;;
9524;SDS011;15940;48.734;9.112;2023-06-26T06:31:39;11.57;;;8.83;;
9524;SDS011;15940;48.734;9.112;2023-06-26T06:34:06;6.53;;;5.93;;
9524;SDS011;15940;48.734;9.112;2023-06-26T06:36:34;6.33;;;5.60;;
9524;SDS011;15940;48.734;9.112;2023-06-26T06:39:01;6.83;;;5.90;;
9524;SDS011;15940;48.734;9.112;2023-06-26T06:41:28;7.80;;;7.00;;
9524;SDS011;15940;48.734;9.112;2023-06-26T06:43:56;6.93;;;6.20;;
9524;SDS011;15940;48.734;9.112;2023-06-26T06:46:26;5.70;;;5.20;;
9524;SDS011;15940;48.734;9.112;2023-06-26T06:48:53;5.83;;;5.20;;
9524;SDS011;15940;48.734;9.112;2023-06-26T06:51:21;8.07;;;5.90;;
9524;SDS011;15940;48.734;9.112;2023-06-26T06:53:49;11.23;;;6.30;;
9524;SDS011;15940;48.734;9.112;2023-06-26T06:56:18;5.40;;;4.97;;
9524;SDS011;15940;48.734;9.112;2023-06-26T06:58:45;6.57;;;5.87;;
9524;SDS011;15940;48.734;9.112;2023-06-26T07:01:12;5.50;;;5.07;;
9524;SDS011;15940;48.734;9.112;2023-06-26T07:03:40;5.47;;;5.03;;
9524;SDS011;15940;48.734;9.112;2023-06-26T07:06:07;5.40;;;4.87;;
9524;SDS011;15940;48.734;9.112;2023-06-26T07:08:34;7.33;;;5.03;;
9524;SDS011;15940;48.734;9.112;2023-06-26T07:11:04;6.67;;;4.93;;
9524;SDS011;15940;48.734;9.112;2023-06-26T07:13:31;5.70;;;5.20;;
9524;SDS011;15940;48.734;9.112;2023-06-26T07:15:58;5.20;;;4.70;;
9524;SDS011;15940;48.734;9.112;2023-06-26T07:18:24;7.17;;;4.83;;
9524;SDS011;15940;48.734;9.112;2023-06-26T07:20:51;5.63;;;5.03;;
9524;SDS011;15940;48.734;9.112;2023-06-26T07:23:20;5.37;;;4.93;;
9524;SDS011;15940;48.734;9.112;2023-06-26T07:25:47;5.60;;;5.20;;
9524;SDS011;15940;48.734;9.112;2023-06-26T07:28:15;5.87;;;5.37;;
9524;SDS011;15940;48.734;9.112;2023-06-26T07:30:45;6.80;;;5.23;;
9524;SDS011;15940;48.734;9.112;2023-06-26T07:33:12;5.37;;;4.90;;
9524;SDS011;15940;48.734;9.112;2023-06-26T07:35:39;5.70;;;5.17;;
9524;SDS011;15940;48.734;9.112;2023-06-26T07:38:07;5.10;;;4.60;;
9524;SDS011;15940;48.734;9.112;2023-06-26T07:40:33;6.40;;;4.83;;
9524;SDS011;15940;48.734;9.112;2023-06-26T07:43:00;9.60;;;5.20;;
9524;SDS011;15940;48.734;9.112;2023-06-26T07:45:29;4.70;;;4.40;;
9524;SDS011;15940;48.734;9.112;2023-06-26T07:47:56;8.00;;;5.20;;
9524;SDS011;15940;48.734;9.112;2023-06-26T07:50:23;4.90;;;4.57;;
9524;SDS011;15940;48.734;9.112;2023-06-26T07:52:51;5.23;;;4.83;;
9524;SDS011;15940;48.734;9.112;2023-06-26T07:55:18;5.40;;;5.00;;
9524;SDS011;15940;48.734;9.112;2023-06-26T07:57:45;6.97;;;5.47;;
9524;SDS011;15940;48.734;9.112;2023-06-26T08:00:12;5.37;;;4.60;;
9524;SDS011;15940;48.734;9.112;2023-06-26T08:04:58;4.77;;;4.30;;
9524;SDS011;15940;48.734;9.112;2023-06-26T08:07:26;4.77;;;4.00;;
9524;SDS011;15940;48.734;9.112;2023-06-26T08:09:53;4.40;;;4.00;;
9524;SDS011;15940;48.734;9.112;2023-06-26T08:12:20;4.70;;;4.40;;
9524;SDS011;15940;48.734;9.112;2023-06-26T08:14:47;5.00;;;4.60;;
9524;SDS011;15940;48.734;9.112;2023-06-26T08:17:18;9.50;;;5.90;;
9524;SDS011;15940;48.734;9.112;2023-06-26T08:19:46;4.10;;;3.90;;
9524;SDS011;15940;48.734;9.112;2023-06-26T08:22:14;3.93;;;3.63;;
9524;SDS011;15940;48.734;9.112;2023-06-26T08:24:41;4.67;;;4.20;;
9524;SDS011;15940;48.734;9.112;2023-06-26T08:27:08;6.33;;;4.20;;
9524;SDS011;15940;48.734;9.112;2023-06-26T08:29:35;5.50;;;5.00;;
9524;SDS011;15940;48.734;9.112;2023-06-26T08:32:04;5.07;;;4.60;;
9524;SDS011;15940;48.734;9.112;2023-06-26T08:34:32;4.40;;;4.10;;
9524;SDS011;15940;48.734;9.112;2023-06-26T08:36:59;4.47;;;4.17;;
9524;SDS011;15940;48.734;9.112;2023-06-26T08:39:28;4.43;;;4.10;;
9524;SDS011;15940;48.734;9.112;2023-06-26T08:41:55;5.67;;;4.30;;
9524;SDS011;15940;48.734;9.112;2023-06-26T08:44:22;7.40;;;4.17;;
9524;SDS011;15940;48.734;9.112;2023-06-26T08:46:51;4.70;;;4.40;;
9524;SDS011;15940;48.734;9.112;2023-06-26T08:49:20;5.33;;;4.40;;
9524;SDS011;15940;48.734;9.112;2023-06-26T08:51:56;4.43;;;4.03;;
9524;SDS011;15940;48.734;9.112;2023-06-26T08:54:33;5.27;;;4.77;;
9524;SDS011;15940;48.734;9.112;2023-06-26T08:57:14;4.63;;;4.30;;
9524;SDS011;15940;48.734;9.112;2023-06-26T08:59:45;5.20;;;4.80;;
9524;SDS011;15940;48.734;9.112;2023-06-26T09:02:13;5.10;;;4.70;;
9524;SDS011;15940;48.734;9.112;2023-06-26T09:04:41;5.87;;;4.50;;
9524;SDS011;15940;48.734;9.112;2023-06-26T09:07:14;5.07;;;4.47;;
9524;SDS011;15940;48.734;9.112;2023-06-26T09:09:49;6.87;;;4.10;;
9524;SDS011;15940;48.734;9.112;2023-06-26T09:12:17;4.63;;;4.33;;
9524;SDS011;15940;48.734;9.112;2023-06-26T09:14:46;5.13;;;4.30;;
9524;SDS011;15940;48.734;9.112;2023-06-26T09:17:17;4.70;;;4.30;;
9524;SDS011;15940;48.734;9.112;2023-06-26T09:19:46;5.30;;;4.37;;
9524;SDS011;15940;48.734;9.112;2023-06-26T09:22:16;5.10;;;4.60;;
9524;SDS011;15940;48.734;9.112;2023-06-26T09:24:43;5.10;;;4.57;;
9524;SDS011;15940;48.734;9.112;2023-06-26T09:27:12;6.23;;;4.73;;
9524;SDS011;15940;48.734;9.112;2023-06-26T09:29:40;5.00;;;4.60;;
9524;SDS011;15940;48.734;9.112;2023-06-26T09:35:42;4.97;;;4.47;;
9524;SDS011;15940;48.734;9.112;2023-06-26T09:38:11;4.80;;;4.50;;
9524;SDS011;15940;48.734;9.112;2023-06-26T09:40:50;5.60;;;4.67;;
9524;SDS011;15940;48.734;9.112;2023-06-26T09:47:09;5.23;;;4.67;;
9524;SDS011;15940;48.734;9.112;2023-06-26T09:49:36;5.23;;;4.70;;
9524;SDS011;15940;48.734;9.112;2023-06-26T09:52:07;4.77;;;4.37;;
9524;SDS011;15940;48.734;9.112;2023-06-26T09:54:36;6.50;;;4.80;;
9524;SDS011;15940;48.734;9.112;2023-06-26T09:57:09;5.37;;;4.87;;
9524;SDS011;15940;48.734;9.112;2023-06-26T09:59:39;5.57;;;5.07;;
9524;SDS011;15940;48.734;9.112;2023-06-26T10:02:23;7.53;;;5.50;;
9524;SDS011;15940;48.734;9.112;2023-06-26T10:04:52;5.40;;;4.93;;
9524;SDS011;15940;48.734;9.112;2023-06-26T10:07:19;4.73;;;4.20;;
9524;SDS011;15940;48.734;9.112;2023-06-26T10:09:47;5.50;;;5.10;;
9524;SDS011;15940;48.734;9.112;2023-06-26T10:12:19;5.30;;;4.73;;
9524;SDS011;15940;48.734;9.112;2023-06-26T10:14:53;4.77;;;4.43;;
9524;SDS011;15940;48.734;9.112;2023-06-26T10:17:27;5.20;;;4.70;;
9524;SDS011;15940;48.734;9.112;2023-06-26T10:20:01;4.90;;;4.50;;
9524;SDS011;15940;48.734;9.112;2023-06-26T10:22:33;13.47;;;5.10;;
9524;SDS011;15940;48.734;9.112;2023-06-26T10:25:10;6.00;;;5.50;;
9524;SDS011;15940;48.734;9.112;2023-06-26T10:27:52;6.03;;;4.73;;
9524;SDS011;15940;48.734;9.112;2023-06-26T10:30:26;7.13;;;4.80;;
9524;SDS011;15940;48.734;9.112;2023-06-26T10:32:58;5.67;;;5.27;;
9524;SDS011;15940;48.734;9.112;2023-06-26T10:35:29;5.97;;;5.47;;
9524;SDS011;15940;48.734;9.112;2023-06-26T10:38:11;6.30;;;5.60;;
9524;SDS011;15940;48.734;9.112;2023-06-26T10:40:46;6.33;;;5.40;;
9524;SDS011;15940;48.734;9.112;2023-06-26T10:43:17;7.40;;;5.90;;
9524;SDS011;15940;48.734;9.112;2023-06-26T10:45:44;6.20;;;5.17;;
9524;SDS011;15940;48.734;9.112;2023-06-26T10:48:18;6.73;;;5.90;;
9524;SDS011;15940;48.734;9.112;2023-06-26T10:50:49;6.00;;;5.40;;
9524;SDS011;15940;48.734;9.112;2023-06-26T10:53:22;6.60;;;5.83;;
9524;SDS011;15940;48.734;9.112;2023-06-26T10:55:55;9.87;;;5.97;;
9524;SDS011;15940;48.734;9.112;2023-06-26T10:58:32;7.80;;;5.60;;
9524;SDS011;15940;48.734;9.112;2023-06-26T11:01:19;10.13;;;5.60;;
9524;SDS011;15940;48.734;9.112;2023-06-26T11:04:00;5.67;;;5.27;;
9524;SDS011;15940;48.734;9.112;2023-06-26T11:06:31;7.90;;;5.63;;
9524;SDS011;15940;48.734;9.112;2023-06-26T11:09:01;7.23;;;5.60;;
9524;SDS011;15940;48.734;9.112;2023-06-26T11:14:30;6.20;;;5.60;;
9524;SDS011;15940;48.734;9.112;2023-06-26T11:16:58;5.77;;;5.30;;
9524;SDS011;15940;48.734;9.112;2023-06-26T11:19:33;8.30;;;5.77;;
9524;SDS011;15940;48.734;9.112;2023-06-26T11:22:04;6.63;;;5.57;;
9524;SDS011;15940;48.734;9.112;2023-06-26T11:24:32;6.03;;;5.53;;
9524;SDS011;15940;48.734;9.112;2023-06-26T11:27:00;6.27;;;5.67;;
9524;SDS011;15940;48.734;9.112;2023-06-26T11:29:30;5.93;;;5.47;;
9524;SDS011;15940;48.734;9.112;2023-06-26T11:32:02;6.40;;;5.80;;
9524;SDS011;15940;48.734;9.112;2023-06-26T11:35:01;6.23;;;5.73;;
9524;SDS011;15940;48.734;9.112;2023-06-26T11:37:30;7.47;;;5.90;;
9524;SDS011;15940;48.734;9.112;2023-06-26T11:43:03;8.60;;;6.00;;
9524;SDS011;15940;48.734;9.112;2023-06-26T11:45:31;6.03;;;5.53;;
9524;SDS011;15940;48.734;9.112;2023-06-26T11:47:58;7.47;;;5.87;;
9524;SDS011;15940;48.734;9.112;2023-06-26T11:50:28;9.87;;;5.63;;
9524;SDS011;15940;48.734;9.112;2023-06-26T11:52:56;10.13;;;5.93;;
9524;SDS011;15940;48.734;9.112;2023-06-26T11:55:27;6.83;;;5.73;;
9524;SDS011;15940;48.734;9.112;2023-06-26T11:57:54;8.80;;;5.50;;
9524;SDS011;15940;48.734;9.112;2023-06-26T12:00:23;10.13;;;5.50;;
9524;SDS011;15940;48.734;9.112;2023-06-26T12:02:50;6.43;;;4.90;;
9524;SDS011;15940;48.734;9.112;2023-06-26T12:05:24;6.33;;;5.80;;
9524;SDS011;15940;48.734;9.112;2023-06-26T12:07:54;6.40;;;5.50;;
9524;SDS011;15940;48.734;9.112;2023-06-26T12:10:24;6.73;;;5.37;;
9524;SDS011;15940;48.734;9.112;2023-06-26T12:12:53;8.03;;;5.93;;
9524;SDS011;15940;48.734;9.112;2023-06-26T12:15:25;7.47;;;5.83;;
9524;SDS011;15940;48.734;9.112;2023-06-26T12:17:55;7.93;;;5.27;;
9524;SDS011;15940;48.734;9.112;2023-06-26T12:20:23;6.13;;;5.60;;
9524;SDS011;15940;48.734;9.112;2023-06-26T12:22:58;6.63;;;6.03;;
9524;SDS011;15940;48.734;9.112;2023-06-26T12:25:27;5.90;;;5.40;;
9524;SDS011;15940;48.734;9.112;2023-06-26T12:27:56;5.90;;;5.40;;
9524;SDS011;15940;48.734;9.112;2023-06-26T12:30:23;5.67;;;5.17;;
9524;SDS011;15940;48.734;9.112;2023-06-26T12:32:51;6.10;;;5.50;;
9524;SDS011;15940;48.734;9.112;2023-06-26T12:35:19;6.00;;;5.40;;
9524;SDS011;15940;48.734;9.112;2023-06-26T12:37:47;7.20;;;5.17;;
9524;SDS011;15940;48.734;9.112;2023-06-26T12:40:23;9.23;;;5.60;;
9524;SDS011;15940;48.734;9.112;2023-06-26T12:42:53;6.47;;;5.57;;
9524;SDS011;15940;48.734;9.112;2023-06-26T12:45:23;5.47;;;4.93;;
9524;SDS011;15940;48.734;9.112;2023-06-26T12:47:52;10.77;;;5.63;;
9524;SDS011;15940;48.734;9.112;2023-06-26T12:50:20;6.07;;;5.57;;
9524;SDS011;15940;48.734;9.112;2023-06-26T12:52:48;8.10;;;5.37;;
9524;SDS011;15940;48.734;9.112;2023-06-26T12:55:15;6.10;;;5.53;;
9524;SDS011;15940;48.734;9.112;2023-06-26T12:57:44;6.20;;;5.70;;
9524;SDS011;15940;48.734;9.112;2023-06-26T13:00:11;9.40;;;5.07;;
9524;SDS011;15940;48.734;9.112;2023-06-26T13:02:42;8.00;;;5.53;;
9524;SDS011;15940;48.734;9.112;2023-06-26T13:05:11;6.90;;;5.53;;
9524;SDS011;15940;48.734;9.112;2023-06-26T13:07:45;6.60;;;5.80;;
9524;SDS011;15940;48.734;9.112;2023-06-26T13:10:14;11.23;;;6.23;;
9524;SDS011;15940;48.734;9.112;2023-06-26T13:12:44;6.40;;;5.87;;
9524;SDS011;15940;48.734;9.112;2023-06-26T13:15:11;7.40;;;5.47;;
9524;SDS011;15940;48.734;9.112;2023-06-26T13:17:39;6.83;;;5.57;;
9524;SDS011;15940;48.734;9.112;2023-06-26T13:20:15;6.10;;;5.37;;
9524;SDS011;15940;48.734;9.112;2023-06-26T13:22:42;6.67;;;5.90;;
9524;SDS011;15940;48.734;9.112;2023-06-26T13:25:11;8.70;;;5.83;;
9524;SDS011;15940;48.734;9.112;2023-06-26T13:27:38;8.50;;;5.60;;
9524;SDS011;15940;48.734;9.112;2023-06-26T13:30:10;6.80;;;5.80;;
9524;SDS011;15940;48.734;9.112;2023-06-26T13:32:38;5.93;;;5.40;;
9524;SDS011;15940;48.734;9.112;2023-06-26T13:35:06;8.73;;;5.20;;
9524;SDS011;15940;48.734;9.112;2023-06-26T13:37:35;5.70;;;5.10;;
9524;SDS011;15940;48.734;9.112;2023-06-26T13:40:03;5.53;;;5.03;;
9524;SDS011;15940;48.734;9.112;2023-06-26T13:42:32;5.97;;;5.33;;
9524;SDS011;15940;48.734;9.112;2023-06-26T13:45:00;5.23;;;4.83;;
9524;SDS011;15940;48.734;9.112;2023-06-26T13:47:29;5.73;;;5.10;;
9524;SDS011;15940;48.734;9.112;2023-06-26T13:49:59;5.80;;;4.70;;
9524;SDS011;15940;48.734;9.112;2023-06-26T13:52:29;5.47;;;4.90;;
9524;SDS011;15940;48.734;9.112;2023-06-26T13:54:56;5.87;;;5.27;;
9524;SDS011;15940;48.734;9.112;2023-06-26T13:57:23;5.97;;;4.40;;
9524;SDS011;15940;48.734;9.112;2023-06-26T13:59:52;7.00;;;5.17;;
9524;SDS011;15940;48.734;9.112;2023-06-26T14:02:19;6.97;;;4.63;;
9524;SDS011;15940;48.734;9.112;2023-06-26T14:04:49;6.40;;;5.03;;
9524;SDS011;15940;48.734;9.112;2023-06-26T14:07:16;6.57;;;4.60;;
9524;SDS011;15940;48.734;9.112;2023-06-26T14:09:43;5.43;;;4.43;;
9524;SDS011;15940;48.734;9.112;2023-06-26T14:12:10;6.37;;;4.30;;
9524;SDS011;15940;48.734;9.112;2023-06-26T14:14:38;4.50;;;4.17;;
9524;SDS011;15940;48.734;9.112;2023-06-26T14:17:06;4.70;;;3.80;;
9524;SDS011;15940;48.734;9.112;2023-06-26T14:19:35;4.03;;;3.60;;
9524;SDS011;15940;48.734;9.112;2023-06-26T14:22:04;5.20;;;4.00;;
9524;SDS011;15940;48.734;9.112;2023-06-26T14:24:31;4.10;;;3.50;;
9524;SDS011;15940;48.734;9.112;2023-06-26T14:26:58;6.20;;;4.27;;
9524;SDS011;15940;48.734;9.112;2023-06-26T14:29:35;7.00;;;3.50;;
9524;SDS011;15940;48.734;9.112;2023-06-26T14:32:02;7.43;;;4.10;;
9524;SDS011;15940;48.734;9.112;2023-06-26T14:34:30;4.20;;;3.80;;
9524;SDS011;15940;48.734;9.112;2023-06-26T14:36:57;4.43;;;4.13;;
9524;SDS011;15940;48.734;9.112;2023-06-26T14:39:26;5.90;;;3.73;;
9524;SDS011;15940;48.734;9.112;2023-06-26T14:41:53;3.77;;;3.47;;
9524;SDS011;15940;48.734;9.112;2023-06-26T14:44:20;7.47;;;3.60;;
9524;SDS011;15940;48.734;9.112;2023-06-26T14:46:47;4.63;;;3.57;;
9524;SDS011;15940;48.734;9.112;2023-06-26T14:49:20;3.43;;;3.17;;
9524;SDS011;15940;48.734;9.112;2023-06-26T14:51:49;3.47;;;3.13;;
9524;SDS011;15940;48.734;9.112;2023-06-26T14:54:18;7.80;;;3.73;;
9524;SDS011;15940;48.734;9.112;2023-06-26T14:56:47;6.30;;;3.30;;
9524;SDS011;15940;48.734;9.112;2023-06-26T14:59:16;4.23;;;3.30;;
9524;SDS011;15940;48.734;9.112;2023-06-26T15:01:43;5.20;;;3.00;;
9524;SDS011;15940;48.734;9.112;2023-06-26T15:04:10;3.33;;;3.03;;
9524;SDS011;15940;48.734;9.112;2023-06-26T15:06:37;3.90;;;3.30;;
9524;SDS011;15940;48.734;9.112;2023-06-26T15:09:04;5.00;;;3.47;;
9524;SDS011;15940;48.734;9.112;2023-06-26T15:11:31;3.63;;;3.03;;
9524;SDS011;15940;48.734;9.112;2023-06-26T15:14:02;4.07;;;3.13;;
9524;SDS011;15940;48.734;9.112;2023-06-26T15:16:29;6.83;;;3.50;;
9524;SDS011;15940;48.734;9.112;2023-06-26T15:18:58;3.73;;;3.20;;
9524;SDS011;15940;48.734;9.112;2023-06-26T15:21:25;3.83;;;3.40;;
9524;SDS011;15940;48.734;9.112;2023-06-26T15:23:53;6.30;;;3.80;;
9524;SDS011;15940;48.734;9.112;2023-06-26T15:26:20;4.33;;;3.63;;
9524;SDS011;15940;48.734;9.112;2023-06-26T15:28:50;5.63;;;3.97;;
9524;SDS011;15940;48.734;9.112;2023-06-26T15:31:20;9.40;;;4.13;;
9524;SDS011;15940;48.734;9.112;2023-06-26T15:33:49;7.10;;;4.20;;
9524;SDS011;15940;48.734;9.112;2023-06-26T15:36:16;4.70;;;3.83;;
9524;SDS011;15940;48.734;9.112;2023-06-26T15:38:45;4.27;;;3.87;;